Time;durP1;ratioP1;P1;durP2;ratioP2;P2;SDS_P1;SDS_P2;PMS_P1;PMS_P2;Temp;Humidity;BMP_temperature;BMP_pressure;BME280_temperature;BME280_humidity;BME280_pressure;Samples;Min_cycle;Max_cycle;Signal;HPM_P1;HPM_P2
2022/04/16 00:01:23;;;;;;;10.27;4.50;;;;;;;;;;4972913;28;20329;-64
2022/04/16 00:03:49;;;;;;;7.85;4.35;;;;;;;;;;4973268;28;20429;-63
2022/04/16 00:06:14;;;;;;;10.52;4.63;;;;;;;;;;4972937;28;20425;-63
2022/04/16 00:08:40;;;;;;;11.55;4.72;;;;;;;;;;4972429;28;20502;-62
2022/04/16 00:11:06;;;;;;;13.52;4.60;;;;;;;;;;4973768;28;20575;-63
2022/04/16 00:13:32;;;;;;;9.18;4.38;;;;;;;;;;4973015;28;20408;-64
2022/04/16 00:15:58;;;;;;;11.55;4.68;;;;;;;;;;4972493;28;20429;-63
2022/04/16 00:18:24;;;;;;;7.93;4.70;;;;;;;;;;4973043;28;20462;-63
2022/04/16 00:20:49;;;;;;;10.23;4.45;;;;;;;;;;4973714;28;20436;-64
2022/04/16 00:23:16;;;;;;;7.70;3.83;;;;;;;;;;4956080;28;20437;-63
2022/04/16 00:25:43;;;;;;;7.07;4.20;;;;;;;;;;4972849;28;20438;-63
2022/04/16 00:28:08;;;;;;;8.20;3.90;;;;;;;;;;4972614;28;20349;-63
2022/04/16 00:30:39;;;;;;;5.88;3.47;;;;;;;;;;4972927;28;20380;-63
2022/04/16 00:33:05;;;;;;;9.15;3.78;;;;;;;;;;4972663;28;20434;-63
2022/04/16 00:35:31;;;;;;;6.25;3.70;;;;;;;;;;4972807;28;20436;-63
2022/04/16 00:37:56;;;;;;;8.00;4.03;;;;;;;;;;4972494;28;20326;-64
2022/04/16 00:40:22;;;;;;;8.70;3.58;;;;;;;;;;4973094;28;20416;-64
2022/04/16 00:42:47;;;;;;;6.93;4.00;;;;;;;;;;4972872;28;20420;-62
2022/04/16 00:45:13;;;;;;;7.43;3.47;;;;;;;;;;4972567;28;20388;-63
2022/04/16 00:47:39;;;;;;;8.95;3.90;;;;;;;;;;4972119;28;20423;-63
2022/04/16 00:50:10;;;;;;;6.50;3.97;;;;;;;;;;4972657;28;20411;-63
2022/04/16 00:52:36;;;;;;;7.43;3.90;;;;;;;;;;4972041;28;20472;-63
2022/04/16 00:55:04;;;;;;;10.68;4.03;;;;;;;;;;4972109;28;20436;-63
2022/04/16 00:57:30;;;;;;;10.00;3.75;;;;;;;;;;4972153;28;20353;-63
2022/04/16 00:59:55;;;;;;;5.47;2.90;;;;;;;;;;4971885;28;20029;-64
2022/04/16 01:02:21;;;;;;;6.28;3.10;;;;;;;;;;4982458;28;20401;-63
2022/04/16 01:04:47;;;;;;;6.10;3.47;;;;;;;;;;4991539;28;20437;-63
2022/04/16 01:07:12;;;;;;;6.75;3.20;;;;;;;;;;4992917;28;20454;-63
2022/04/16 01:09:37;;;;;;;5.20;3.05;;;;;;;;;;4991869;28;20387;-62
2022/04/16 01:12:03;;;;;;;4.88;3.10;;;;;;;;;;4992507;28;20400;-63
2022/04/16 01:14:29;;;;;;;7.05;3.63;;;;;;;;;;4992532;28;20047;-63
2022/04/16 01:16:56;;;;;;;7.47;3.55;;;;;;;;;;4992146;28;20371;-62
2022/04/16 01:19:22;;;;;;;4.95;3.08;;;;;;;;;;4991522;28;20471;-63
2022/04/16 01:21:48;;;;;;;7.40;3.55;;;;;;;;;;4993045;28;20494;-63
2022/04/16 01:24:14;;;;;;;7.03;3.10;;;;;;;;;;4991327;28;20507;-63
2022/04/16 01:26:41;;;;;;;8.88;3.28;;;;;;;;;;4991202;28;20564;-63
2022/04/16 01:29:07;;;;;;;4.53;2.97;;;;;;;;;;4991348;28;20325;-62
2022/04/16 01:31:33;;;;;;;5.57;3.17;;;;;;;;;;4989212;28;20087;-63
2022/04/16 01:33:58;;;;;;;5.85;2.90;;;;;;;;;;4991620;28;20037;-63
2022/04/16 01:36:25;;;;;;;6.88;3.55;;;;;;;;;;4993017;28;20044;-63
2022/04/16 01:38:51;;;;;;;5.95;3.05;;;;;;;;;;4991547;28;20428;-63
2022/04/16 01:41:16;;;;;;;8.05;3.33;;;;;;;;;;4991006;28;20357;-63
2022/04/16 01:43:41;;;;;;;5.18;2.90;;;;;;;;;;4990613;28;20321;-63
2022/04/16 01:46:07;;;;;;;5.28;2.78;;;;;;;;;;4982821;28;20348;-63
2022/04/16 01:48:34;;;;;;;3.95;2.45;;;;;;;;;;4971065;28;20460;-62
2022/04/16 01:51:00;;;;;;;4.25;2.42;;;;;;;;;;4971183;28;20417;-63
2022/04/16 01:53:25;;;;;;;4.85;2.92;;;;;;;;;;4972046;28;20372;-63
2022/04/16 01:55:50;;;;;;;5.43;2.90;;;;;;;;;;4971077;28;20049;-63
2022/04/16 01:58:16;;;;;;;5.82;3.20;;;;;;;;;;4970988;28;20302;-62
2022/04/16 02:00:41;;;;;;;4.57;2.33;;;;;;;;;;4970616;28;20421;-62
2022/04/16 02:03:08;;;;;;;7.20;3.05;;;;;;;;;;4970749;28;20037;-63
2022/04/16 02:05:34;;;;;;;4.60;2.35;;;;;;;;;;4971333;28;20373;-64
2022/04/16 02:07:59;;;;;;;3.67;2.28;;;;;;;;;;4971806;28;20423;-63
2022/04/16 02:10:25;;;;;;;4.07;2.50;;;;;;;;;;4970597;28;20526;-63
2022/04/16 02:12:50;;;;;;;4.28;2.20;;;;;;;;;;4970906;28;20021;-64
2022/04/16 02:15:15;;;;;;;5.32;2.50;;;;;;;;;;4971455;28;20317;-62
2022/04/16 02:17:41;;;;;;;6.38;2.20;;;;;;;;;;4970444;28;20372;-63
2022/04/16 02:20:08;;;;;;;4.82;2.33;;;;;;;;;;4970398;28;20526;-63
2022/04/16 02:22:44;;;;;;;4.22;2.20;;;;;;;;;;4970213;28;20037;-62
2022/04/16 02:25:11;;;;;;;4.78;2.13;;;;;;;;;;4970707;28;20357;-64
2022/04/16 02:27:36;;;;;;;3.50;2.05;;;;;;;;;;4970982;28;20345;-63
2022/04/16 02:30:07;;;;;;;3.78;1.90;;;;;;;;;;4970930;28;20368;-64
2022/04/16 02:32:36;;;;;;;3.42;1.98;;;;;;;;;;4971506;28;20345;-63
2022/04/16 02:35:01;;;;;;;6.65;2.15;;;;;;;;;;4952796;28;20391;-63
2022/04/16 02:37:27;;;;;;;3.40;2.03;;;;;;;;;;4969813;28;20395;-63
2022/04/16 02:39:52;;;;;;;5.72;2.17;;;;;;;;;;4970057;28;20436;-63
2022/04/16 02:42:18;;;;;;;4.95;1.90;;;;;;;;;;4969650;28;20468;-63
2022/04/16 02:47:29;;;;;;;4.20;2.00;;;;;;;;;;4972203;28;20449;-63
2022/04/16 02:49:55;;;;;;;2.95;1.90;;;;;;;;;;4969788;28;20449;-63
2022/04/16 02:52:22;;;;;;;3.53;2.22;;;;;;;;;;4970038;28;20432;-63
2022/04/16 02:54:47;;;;;;;3.50;2.15;;;;;;;;;;4969974;28;20453;-64
2022/04/16 02:57:13;;;;;;;5.53;2.30;;;;;;;;;;4969902;28;20413;-63
2022/04/16 02:59:39;;;;;;;3.78;1.73;;;;;;;;;;4969711;28;20511;-63
2022/04/16 03:02:05;;;;;;;3.53;1.90;;;;;;;;;;4970787;28;20053;-63
2022/04/16 03:04:32;;;;;;;4.40;1.58;;;;;;;;;;4970805;28;20463;-63
2022/04/16 03:06:58;;;;;;;5.65;2.05;;;;;;;;;;4970265;28;20455;-63
2022/04/16 03:09:23;;;;;;;4.10;2.05;;;;;;;;;;4971162;28;20421;-63
2022/04/16 03:11:48;;;;;;;2.78;1.88;;;;;;;;;;4969563;28;20394;-63
2022/04/16 03:19:41;;;;;;;2.60;1.70;;;;;;;;;;4970326;28;20463;-63
2022/04/16 03:22:07;;;;;;;3.17;1.90;;;;;;;;;;4969760;28;20480;-64
2022/04/16 03:24:32;;;;;;;2.67;1.67;;;;;;;;;;4969363;28;20425;-64
2022/04/16 03:26:58;;;;;;;2.63;1.33;;;;;;;;;;4969368;28;20380;-63
2022/04/16 03:29:23;;;;;;;2.88;1.75;;;;;;;;;;4969519;28;20029;-63
2022/04/16 03:31:48;;;;;;;1.83;1.48;;;;;;;;;;4969356;28;20424;-63
2022/04/16 03:34:14;;;;;;;2.08;1.30;;;;;;;;;;4969486;28;20337;-64
2022/04/16 03:36:39;;;;;;;2.55;1.45;;;;;;;;;;4969381;28;20029;-63
2022/04/16 03:39:12;;;;;;;2.68;1.68;;;;;;;;;;4508868;28;10001988;-63
2022/04/16 03:41:38;;;;;;;1.40;1.15;;;;;;;;;;2890393;28;10001995;-63
2022/04/16 03:44:04;;;;;;;3.30;1.38;;;;;;;;;;4972258;28;20411;-63
2022/04/16 03:46:30;;;;;;;4.22;1.55;;;;;;;;;;4988890;28;20345;-63
2022/04/16 03:48:55;;;;;;;2.95;1.50;;;;;;;;;;4988884;28;20332;-63
2022/04/16 03:51:20;;;;;;;3.03;1.40;;;;;;;;;;4988759;28;20025;-63
2022/04/16 03:53:46;;;;;;;5.22;2.13;;;;;;;;;;4989003;28;20360;-63
2022/04/16 04:01:39;;;;;;;1.77;1.35;;;;;;;;;;4988698;28;20546;-63
2022/04/16 04:04:04;;;;;;;1.63;1.08;;;;;;;;;;4990255;28;20466;-62
2022/04/16 04:06:30;;;;;;;2.50;1.50;;;;;;;;;;4988772;28;20426;-64
2022/04/16 04:08:55;;;;;;;2.45;1.40;;;;;;;;;;4988130;28;20439;-62
2022/04/16 04:11:21;;;;;;;3.20;1.23;;;;;;;;;;4988351;28;20459;-63
2022/04/16 04:13:46;;;;;;;3.55;1.48;;;;;;;;;;4988063;28;20459;-62
2022/04/16 04:16:11;;;;;;;4.15;1.63;;;;;;;;;;4987873;28;20037;-63
2022/04/16 04:18:36;;;;;;;2.50;1.45;;;;;;;;;;4988122;28;20420;-63
2022/04/16 04:21:02;;;;;;;3.13;1.40;;;;;;;;;;4988447;28;20439;-63
2022/04/16 04:23:27;;;;;;;3.60;1.30;;;;;;;;;;4988348;28;20468;-63
2022/04/16 04:25:53;;;;;;;2.35;1.30;;;;;;;;;;4988654;28;20412;-63
2022/04/16 04:28:18;;;;;;;2.03;1.20;;;;;;;;;;4988443;28;20444;-62
2022/04/16 04:30:43;;;;;;;1.45;1.25;;;;;;;;;;4988773;28;20363;-64
2022/04/16 04:33:09;;;;;;;3.00;1.40;;;;;;;;;;4988530;28;20444;-64
2022/04/16 04:35:34;;;;;;;3.10;1.10;;;;;;;;;;4990008;28;20414;-63
2022/04/16 04:37:59;;;;;;;2.38;1.35;;;;;;;;;;4988898;28;20567;-62
2022/04/16 04:40:25;;;;;;;1.48;1.00;;;;;;;;;;4988255;28;20436;-63
2022/04/16 04:42:50;;;;;;;2.63;1.63;;;;;;;;;;4989757;28;20404;-63
2022/04/16 04:45:16;;;;;;;3.20;1.25;;;;;;;;;;4989247;28;20447;-63
2022/04/16 04:47:41;;;;;;;3.30;1.42;;;;;;;;;;4993443;28;20424;-63
2022/04/16 04:50:08;;;;;;;2.33;1.30;;;;;;;;;;4992239;28;20033;-62
2022/04/16 04:52:36;;;;;;;2.25;1.30;;;;;;;;;;4991936;28;20519;-63
2022/04/16 04:55:01;;;;;;;2.42;1.30;;;;;;;;;;4991783;28;20124;-63
2022/04/16 04:57:27;;;;;;;2.25;1.40;;;;;;;;;;4992831;28;20025;-62
2022/04/16 04:59:53;;;;;;;1.55;1.23;;;;;;;;;;4991532;28;20436;-63
2022/04/16 05:02:18;;;;;;;1.65;1.23;;;;;;;;;;4991759;28;20451;-62
2022/04/16 05:04:44;;;;;;;2.67;1.67;;;;;;;;;;4992874;28;20384;-63
2022/04/16 05:07:09;;;;;;;2.33;1.42;;;;;;;;;;4991759;28;20546;-62
2022/04/16 05:09:35;;;;;;;1.77;1.27;;;;;;;;;;4991359;28;20448;-63
2022/04/16 05:12:01;;;;;;;2.15;1.40;;;;;;;;;;4991736;28;20456;-63
2022/04/16 05:14:26;;;;;;;1.85;1.42;;;;;;;;;;4991745;28;20497;-62
2022/04/16 05:16:51;;;;;;;1.58;1.20;;;;;;;;;;4991368;28;20051;-62
2022/04/16 05:19:17;;;;;;;1.67;1.20;;;;;;;;;;4991235;28;20044;-63
2022/04/16 05:21:42;;;;;;;1.90;1.25;;;;;;;;;;4991073;28;20370;-62
2022/04/16 05:24:08;;;;;;;2.88;1.27;;;;;;;;;;4992969;28;20432;-62
2022/04/16 05:26:35;;;;;;;2.45;1.42;;;;;;;;;;4991954;28;20394;-63
2022/04/16 05:29:00;;;;;;;1.75;1.13;;;;;;;;;;4991388;28;20391;-62
2022/04/16 05:31:27;;;;;;;1.98;1.30;;;;;;;;;;4991242;28;20399;-63
2022/04/16 05:36:40;;;;;;;2.30;1.73;;;;;;;;;;4991400;28;20490;-63
2022/04/16 05:39:06;;;;;;;2.03;1.63;;;;;;;;;;4990936;28;20515;-63
2022/04/16 05:41:33;;;;;;;4.80;2.25;;;;;;;;;;4991285;28;20060;-62
2022/04/16 05:43:59;;;;;;;4.22;2.40;;;;;;;;;;4990688;28;20476;-62
2022/04/16 05:46:24;;;;;;;3.28;1.80;;;;;;;;;;4990771;28;20498;-63
2022/04/16 05:48:49;;;;;;;4.65;2.22;;;;;;;;;;4990871;28;20375;-63
2022/04/16 05:51:15;;;;;;;2.72;1.58;;;;;;;;;;4990902;28;20052;-64
2022/04/16 05:53:40;;;;;;;4.40;2.42;;;;;;;;;;4990768;28;20032;-63
2022/04/16 05:56:06;;;;;;;6.07;2.40;;;;;;;;;;4991363;28;20527;-62
2022/04/16 05:58:32;;;;;;;4.32;2.00;;;;;;;;;;4989939;28;20084;-63
2022/04/16 06:00:57;;;;;;;6.78;2.53;;;;;;;;;;4991255;28;20355;-63
2022/04/16 06:03:24;;;;;;;5.32;2.38;;;;;;;;;;4990904;28;20337;-62
2022/04/16 06:05:50;;;;;;;7.40;2.83;;;;;;;;;;4991651;28;20424;-62
2022/04/16 06:08:16;;;;;;;3.67;2.17;;;;;;;;;;4992247;28;20029;-63
2022/04/16 06:10:41;;;;;;;5.35;2.05;;;;;;;;;;4990008;28;20450;-63
2022/04/16 06:13:06;;;;;;;5.25;2.30;;;;;;;;;;4990298;28;20539;-63
2022/04/16 06:15:32;;;;;;;4.22;1.90;;;;;;;;;;4990736;28;20036;-63
2022/04/16 06:17:57;;;;;;;5.90;2.80;;;;;;;;;;4991230;28;20175;-63
2022/04/16 06:20:23;;;;;;;3.67;1.88;;;;;;;;;;4990067;28;20393;-64
2022/04/16 06:22:48;;;;;;;38.67;26.98;;;;;;;;;;4990186;28;20024;-63
2022/04/16 06:25:14;;;;;;;16.13;12.55;;;;;;;;;;4991024;28;20421;-63
2022/04/16 06:27:39;;;;;;;23.80;16.88;;;;;;;;;;4990504;28;20368;-63
2022/04/16 06:30:09;;;;;;;20.20;14.93;;;;;;;;;;4989972;28;20432;-64
2022/04/16 06:32:35;;;;;;;29.83;17.33;;;;;;;;;;4990054;28;20020;-62
2022/04/16 06:35:05;;;;;;;49.58;31.45;;;;;;;;;;4989825;28;20044;-64
2022/04/16 06:37:34;;;;;;;122.30;71.30;;;;;;;;;;4989659;28;20470;-63
2022/04/16 06:39:59;;;;;;;150.13;82.88;;;;;;;;;;4991274;28;20424;-63
2022/04/16 06:42:26;;;;;;;128.90;74.55;;;;;;;;;;4989529;28;20415;-63
2022/04/16 06:44:51;;;;;;;112.63;62.85;;;;;;;;;;4989362;28;20456;-63
2022/04/16 06:47:16;;;;;;;92.07;55.55;;;;;;;;;;4990137;28;20430;-63
2022/04/16 06:49:41;;;;;;;81.68;49.55;;;;;;;;;;4989512;28;20430;-64
2022/04/16 06:52:07;;;;;;;86.88;48.58;;;;;;;;;;4989625;28;20123;-63
2022/04/16 06:54:32;;;;;;;78.07;45.58;;;;;;;;;;4990770;28;20029;-63
2022/04/16 06:56:57;;;;;;;76.55;44.30;;;;;;;;;;4991043;28;20417;-64
2022/04/16 06:59:23;;;;;;;72.75;41.75;;;;;;;;;;4989537;28;20566;-63
2022/04/16 07:01:48;;;;;;;63.78;38.85;;;;;;;;;;4989593;28;20029;-63
2022/04/16 07:04:14;;;;;;;65.07;37.22;;;;;;;;;;4989684;28;20125;-63
2022/04/16 07:06:41;;;;;;;66.97;37.08;;;;;;;;;;4989364;28;20343;-63
2022/04/16 07:09:07;;;;;;;61.30;34.90;;;;;;;;;;4989879;28;20302;-63
2022/04/16 07:11:32;;;;;;;60.17;35.47;;;;;;;;;;4988849;28;20440;-63
2022/04/16 07:13:58;;;;;;;57.42;33.92;;;;;;;;;;4989073;28;20493;-63
2022/04/16 07:16:23;;;;;;;55.88;33.95;;;;;;;;;;4989275;28;20386;-63
2022/04/16 07:18:48;;;;;;;54.28;33.33;;;;;;;;;;4990359;28;20328;-64
2022/04/16 07:21:14;;;;;;;50.50;32.05;;;;;;;;;;4990296;28;20055;-63
2022/04/16 07:23:39;;;;;;;53.80;31.70;;;;;;;;;;4988953;28;20103;-63
2022/04/16 07:26:05;;;;;;;50.20;31.92;;;;;;;;;;4988948;28;20175;-63
2022/04/16 07:28:30;;;;;;;47.42;27.83;;;;;;;;;;4989466;28;20383;-63
2022/04/16 07:30:55;;;;;;;48.85;29.20;;;;;;;;;;4988846;28;20459;-63
2022/04/16 07:33:21;;;;;;;48.22;27.65;;;;;;;;;;4989154;28;20116;-63
2022/04/16 07:35:47;;;;;;;42.97;27.15;;;;;;;;;;4988750;28;20510;-64
2022/04/16 07:38:12;;;;;;;52.38;28.83;;;;;;;;;;4989242;28;20432;-64
2022/04/16 07:40:38;;;;;;;44.72;26.98;;;;;;;;;;4988456;28;20051;-63
2022/04/16 07:43:03;;;;;;;44.92;27.08;;;;;;;;;;4988839;28;20428;-63
2022/04/16 07:45:29;;;;;;;47.15;25.73;;;;;;;;;;4988840;28;20462;-64
2022/04/16 07:47:54;;;;;;;43.78;25.60;;;;;;;;;;4988709;28;20353;-63
2022/04/16 07:50:20;;;;;;;44.72;24.77;;;;;;;;;;4989076;28;20403;-63
2022/04/16 07:52:46;;;;;;;43.22;24.17;;;;;;;;;;4988861;28;20471;-63
2022/04/16 07:55:11;;;;;;;46.50;24.52;;;;;;;;;;4989605;28;20479;-63
2022/04/16 07:57:37;;;;;;;41.35;22.60;;;;;;;;;;4988425;28;20494;-63
2022/04/16 08:00:04;;;;;;;44.45;23.85;;;;;;;;;;4988728;28;20391;-63
2022/04/16 08:02:29;;;;;;;42.38;22.98;;;;;;;;;;4970883;28;20366;-63
2022/04/16 08:04:55;;;;;;;44.00;22.67;;;;;;;;;;4988595;28;20510;-63
2022/04/16 08:07:20;;;;;;;39.13;22.73;;;;;;;;;;4988845;28;20057;-63
2022/04/16 08:09:46;;;;;;;41.90;22.27;;;;;;;;;;4988171;28;20365;-63
2022/04/16 08:12:11;;;;;;;36.33;20.45;;;;;;;;;;4988984;28;20033;-63
2022/04/16 08:14:36;;;;;;;37.33;21.02;;;;;;;;;;4988667;28;20432;-63
2022/04/16 08:17:02;;;;;;;40.25;20.40;;;;;;;;;;4990313;28;20451;-63
2022/04/16 08:19:27;;;;;;;36.17;20.75;;;;;;;;;;4988610;28;20515;-64
2022/04/16 08:21:53;;;;;;;38.05;19.65;;;;;;;;;;4992456;28;20056;-64
2022/04/16 08:26:56;;;;;;;36.97;19.45;;;;;;;;;;4992353;28;20419;-63
2022/04/16 08:29:22;;;;;;;37.58;19.13;;;;;;;;;;4992312;28;20347;-63
2022/04/16 08:31:48;;;;;;;32.45;19.55;;;;;;;;;;4992458;28;20412;-63
2022/04/16 08:34:13;;;;;;;34.83;19.02;;;;;;;;;;4992279;28;20461;-63
2022/04/16 08:36:38;;;;;;;35.13;18.02;;;;;;;;;;4992785;28;20488;-63
2022/04/16 08:39:04;;;;;;;26.88;16.50;;;;;;;;;;4992256;28;20440;-63
2022/04/16 08:41:30;;;;;;;32.70;16.02;;;;;;;;;;4993303;28;20414;-63
2022/04/16 08:43:56;;;;;;;30.60;17.63;;;;;;;;;;4991515;28;20455;-63
2022/04/16 08:46:22;;;;;;;31.33;17.63;;;;;;;;;;4992857;28;20025;-63
2022/04/16 08:48:48;;;;;;;30.15;17.23;;;;;;;;;;4974123;28;20506;-64
2022/04/16 08:51:15;;;;;;;28.85;16.98;;;;;;;;;;4991353;28;20383;-63
2022/04/16 08:53:41;;;;;;;26.35;16.08;;;;;;;;;;4991938;28;20345;-63
2022/04/16 08:56:06;;;;;;;25.83;15.73;;;;;;;;;;4991716;28;20474;-63
2022/04/16 08:58:32;;;;;;;28.33;15.75;;;;;;;;;;4992532;28;20363;-63
2022/04/16 09:00:57;;;;;;;21.75;14.52;;;;;;;;;;4991527;28;20460;-63
2022/04/16 09:03:33;;;;;;;22.80;13.43;;;;;;;;;;4992054;28;20512;-63
2022/04/16 09:05:59;;;;;;;31.65;15.07;;;;;;;;;;4991882;28;20439;-63
2022/04/16 09:08:29;;;;;;;24.55;13.85;;;;;;;;;;4993473;28;20418;-63
2022/04/16 09:11:10;;;;;;;28.25;14.65;;;;;;;;;;4973717;28;20364;-63
2022/04/16 09:13:48;;;;;;;22.20;13.65;;;;;;;;;;4985182;28;20425;-63
2022/04/16 09:16:14;;;;;;;22.45;12.25;;;;;;;;;;4985998;28;20448;-63
2022/04/16 09:18:52;;;;;;;23.35;13.20;;;;;;;;;;4993197;28;20488;-64
2022/04/16 09:21:18;;;;;;;23.35;12.20;;;;;;;;;;4991367;28;20702;-63
2022/04/16 09:23:50;;;;;;;18.70;11.43;;;;;;;;;;4990941;28;20039;-63
2022/04/16 09:26:25;;;;;;;23.58;12.80;;;;;;;;;;4991224;28;20452;-64
2022/04/16 09:28:50;;;;;;;22.33;13.05;;;;;;;;;;4991735;28;20363;-63
2022/04/16 09:31:16;;;;;;;20.30;11.43;;;;;;;;;;4990548;28;20342;-63
2022/04/16 09:33:42;;;;;;;20.67;11.73;;;;;;;;;;4992164;28;20366;-64
2022/04/16 09:36:07;;;;;;;18.33;11.02;;;;;;;;;;4991167;28;20506;-63
2022/04/16 09:38:35;;;;;;;21.02;11.73;;;;;;;;;;4989610;28;20051;-63
2022/04/16 09:41:08;;;;;;;19.38;11.02;;;;;;;;;;4992033;28;20116;-63
2022/04/16 09:43:37;;;;;;;19.00;10.75;;;;;;;;;;4991018;28;20328;-64
2022/04/16 09:46:10;;;;;;;;;;;;;;;;;;4990778;28;20334;-63
2022/04/16 09:48:36;;;;;;;17.00;9.15;;;;;;;;;;4991254;28;20486;-64
2022/04/16 09:51:03;;;;;;;17.33;9.80;;;;;;;;;;4989650;28;20415;-63
2022/04/16 09:53:30;;;;;;;20.38;10.80;;;;;;;;;;4991059;28;20513;-63
2022/04/16 09:55:56;;;;;;;16.60;9.65;;;;;;;;;;4990734;28;20103;-63
2022/04/16 09:58:35;;;;;;;15.45;8.52;;;;;;;;;;4990209;28;20436;-64
2022/04/16 10:01:01;;;;;;;16.02;9.13;;;;;;;;;;4990703;28;20416;-64
2022/04/16 10:03:30;;;;;;;15.77;9.45;;;;;;;;;;4991107;28;20056;-64
2022/04/16 10:05:57;;;;;;;15.70;9.10;;;;;;;;;;4989161;28;20436;-63
2022/04/16 10:08:22;;;;;;;15.93;7.55;;;;;;;;;;4990213;28;20463;-64
2022/04/16 10:10:54;;;;;;;14.68;8.10;;;;;;;;;;4990430;28;20490;-63
2022/04/16 10:13:20;;;;;;;15.40;8.38;;;;;;;;;;4990312;28;20541;-63
2022/04/16 10:15:57;;;;;;;13.93;9.13;;;;;;;;;;4991920;28;20479;-63
2022/04/16 10:18:24;;;;;;;14.45;7.97;;;;;;;;;;4990148;28;20090;-64
2022/04/16 10:20:53;;;;;;;15.90;7.93;;;;;;;;;;4990180;28;20357;-64
2022/04/16 10:23:40;;;;;;;12.85;7.28;;;;;;;;;;4990453;28;20472;-63
2022/04/16 10:26:13;;;;;;;14.38;8.07;;;;;;;;;;4989920;28;20343;-64
2022/04/16 10:28:40;;;;;;;12.48;7.35;;;;;;;;;;4990192;28;20298;-64
2022/04/16 10:31:06;;;;;;;11.68;7.05;;;;;;;;;;4989893;28;20321;-63
2022/04/16 10:33:32;;;;;;;11.88;7.05;;;;;;;;;;4990411;28;20048;-64
2022/04/16 10:36:01;;;;;;;12.15;6.80;;;;;;;;;;4991148;28;20032;-64
2022/04/16 10:38:46;;;;;;;10.52;7.10;;;;;;;;;;4988495;28;20396;-64
2022/04/16 10:41:13;;;;;;;15.88;7.03;;;;;;;;;;4989849;28;20427;-64
2022/04/16 10:43:38;;;;;;;10.13;6.45;;;;;;;;;;4989118;28;20032;-63
2022/04/16 10:46:05;;;;;;;10.90;6.93;;;;;;;;;;4990893;28;20475;-64
2022/04/16 10:48:32;;;;;;;11.27;6.43;;;;;;;;;;4989939;28;20048;-64
2022/04/16 10:50:58;;;;;;;11.02;6.32;;;;;;;;;;4989872;28;20448;-64
2022/04/16 10:53:28;;;;;;;11.07;6.47;;;;;;;;;;4989787;28;20364;-64
2022/04/16 10:55:53;;;;;;;11.35;6.05;;;;;;;;;;4989740;28;20540;-64
2022/04/16 10:58:27;;;;;;;10.25;6.25;;;;;;;;;;4988754;28;20412;-64
2022/04/16 11:01:04;;;;;;;11.43;5.05;;;;;;;;;;4989449;28;20463;-64
2022/04/16 11:03:33;;;;;;;8.45;5.22;;;;;;;;;;4989947;28;20432;-64
2022/04/16 11:06:05;;;;;;;8.50;5.10;;;;;;;;;;4989802;28;20525;-64
2022/04/16 11:08:33;;;;;;;7.88;4.47;;;;;;;;;;4989661;28;20055;-64
2022/04/16 11:10:58;;;;;;;9.68;4.80;;;;;;;;;;4989698;28;20394;-64
2022/04/16 11:13:25;;;;;;;8.52;5.28;;;;;;;;;;4989938;28;20378;-64
2022/04/16 11:15:51;;;;;;;11.00;5.30;;;;;;;;;;4989423;28;20479;-64
2022/04/16 11:18:18;;;;;;;8.52;4.18;;;;;;;;;;4989531;28;20425;-64
2022/04/16 11:20:53;;;;;;;7.57;4.50;;;;;;;;;;4988652;28;20435;-64
2022/04/16 11:23:18;;;;;;;7.03;4.30;;;;;;;;;;4989091;28;20341;-64
2022/04/16 11:34:15;;;;;;;7.40;4.50;;;;;;;;;;4989694;28;20126;-64
2022/04/16 11:36:41;;;;;;;6.68;4.47;;;;;;;;;;4989135;28;20500;-65
2022/04/16 11:39:22;;;;;;;7.35;4.05;;;;;;;;;;4989580;28;20437;-64
2022/04/16 11:41:49;;;;;;;6.78;3.70;;;;;;;;;;4988823;28;20427;-64
2022/04/16 11:44:15;;;;;;;7.25;4.00;;;;;;;;;;4989159;28;20136;-65
2022/04/16 11:46:41;;;;;;;7.75;4.28;;;;;;;;;;4989141;28;20462;-64
2022/04/16 11:49:07;;;;;;;7.50;4.43;;;;;;;;;;4987106;28;20025;-64
2022/04/16 11:51:36;;;;;;;7.63;4.30;;;;;;;;;;4986940;28;20029;-64
2022/04/16 11:54:02;;;;;;;6.50;4.50;;;;;;;;;;4988821;28;20416;-65
2022/04/16 11:56:27;;;;;;;6.93;3.63;;;;;;;;;;4988205;28;20379;-64
2022/04/16 11:58:52;;;;;;;6.50;3.70;;;;;;;;;;4988660;28;20371;-64
2022/04/16 12:01:24;;;;;;;5.55;3.72;;;;;;;;;;4989962;28;20344;-65
2022/04/16 12:03:52;;;;;;;7.32;3.95;;;;;;;;;;4988637;28;20138;-64
2022/04/16 12:06:17;;;;;;;8.73;4.60;;;;;;;;;;4988802;28;20424;-65
2022/04/16 12:08:43;;;;;;;5.72;3.20;;;;;;;;;;4988566;28;20452;-64
2022/04/16 12:11:09;;;;;;;7.13;4.38;;;;;;;;;;4988258;28;20347;-64
2022/04/16 12:13:39;;;;;;;7.32;3.58;;;;;;;;;;4987130;28;20456;-65
2022/04/16 12:16:12;;;;;;;4.65;3.15;;;;;;;;;;4988781;28;20452;-65
2022/04/16 12:18:40;;;;;;;6.95;3.65;;;;;;;;;;4988011;28;20506;-65
2022/04/16 12:21:10;;;;;;;7.10;3.17;;;;;;;;;;4988562;28;20482;-65
2022/04/16 12:23:38;;;;;;;7.00;3.40;;;;;;;;;;4988500;28;20371;-65
2022/04/16 12:26:15;;;;;;;5.90;3.90;;;;;;;;;;4988631;28;20379;-65
2022/04/16 12:28:43;;;;;;;7.65;4.28;;;;;;;;;;4988739;28;20366;-65
2022/04/16 12:31:08;;;;;;;9.67;4.03;;;;;;;;;;4988471;28;20498;-65
2022/04/16 12:33:34;;;;;;;4.03;2.92;;;;;;;;;;4987293;28;20398;-64
2022/04/16 12:35:59;;;;;;;5.88;3.38;;;;;;;;;;4970147;28;20348;-65
2022/04/16 12:38:25;;;;;;;7.10;3.83;;;;;;;;;;4988513;28;20383;-65
2022/04/16 12:41:05;;;;;;;6.10;3.20;;;;;;;;;;4988645;28;20452;-64
2022/04/16 12:43:30;;;;;;;4.95;3.15;;;;;;;;;;4988315;28;20487;-64
2022/04/16 12:45:55;;;;;;;4.97;3.10;;;;;;;;;;4988295;28;20598;-65
2022/04/16 12:48:21;;;;;;;5.22;3.58;;;;;;;;;;4988774;28;20476;-65
2022/04/16 12:50:46;;;;;;;6.57;3.58;;;;;;;;;;4988941;28;20422;-64
2022/04/16 12:53:11;;;;;;;3.90;2.85;;;;;;;;;;4988171;28;20104;-64
2022/04/16 12:55:37;;;;;;;5.20;2.88;;;;;;;;;;4988358;28;20104;-64
2022/04/16 12:58:02;;;;;;;6.97;2.85;;;;;;;;;;4988519;28;20060;-65
2022/04/16 13:00:27;;;;;;;7.75;3.00;;;;;;;;;;4988340;28;20566;-64
2022/04/16 13:02:53;;;;;;;4.78;2.92;;;;;;;;;;4989085;28;20432;-64
2022/04/16 13:05:18;;;;;;;4.63;2.20;;;;;;;;;;4988839;28;20335;-64
2022/04/16 13:07:45;;;;;;;5.97;2.72;;;;;;;;;;4991749;28;20348;-64
2022/04/16 13:10:11;;;;;;;7.05;2.78;;;;;;;;;;4991638;28;20624;-64
2022/04/16 13:12:37;;;;;;;4.93;2.78;;;;;;;;;;4992656;28;20367;-65
2022/04/16 13:15:04;;;;;;;3.95;2.03;;;;;;;;;;4991253;28;20467;-64
2022/04/16 13:17:30;;;;;;;4.30;2.13;;;;;;;;;;4992230;28;20423;-64
2022/04/16 13:19:56;;;;;;;3.58;2.30;;;;;;;;;;4992456;28;20387;-64
2022/04/16 13:22:21;;;;;;;5.03;3.17;;;;;;;;;;4992249;28;20083;-64
2022/04/16 13:24:46;;;;;;;3.97;1.92;;;;;;;;;;4991659;28;20401;-64
2022/04/16 13:27:12;;;;;;;4.03;2.17;;;;;;;;;;4991471;28;20486;-65
2022/04/16 13:29:37;;;;;;;4.13;2.45;;;;;;;;;;4990988;28;20415;-64
2022/04/16 13:32:04;;;;;;;4.50;2.83;;;;;;;;;;4991518;28;20458;-64
2022/04/16 13:34:30;;;;;;;4.13;2.42;;;;;;;;;;4991248;28;20432;-64
2022/04/16 13:36:55;;;;;;;5.05;2.80;;;;;;;;;;4990947;28;20425;-64
2022/04/16 13:42:05;;;;;;;4.78;2.13;;;;;;;;;;4990559;28;20462;-65
2022/04/16 13:44:30;;;;;;;4.13;2.20;;;;;;;;;;4990654;28;20079;-65
2022/04/16 13:46:56;;;;;;;4.20;2.22;;;;;;;;;;4991183;28;20555;-64
2022/04/16 13:49:21;;;;;;;5.72;2.40;;;;;;;;;;4990842;28;20363;-64
2022/04/16 13:51:46;;;;;;;3.38;2.00;;;;;;;;;;4990886;28;20399;-64
2022/04/16 13:54:12;;;;;;;3.22;1.80;;;;;;;;;;4990733;28;20416;-64
2022/04/16 13:56:37;;;;;;;4.63;2.28;;;;;;;;;;4991217;28;20318;-64
2022/04/16 13:59:03;;;;;;;3.15;1.77;;;;;;;;;;4991357;28;20638;-64
2022/04/16 14:01:28;;;;;;;3.15;1.85;;;;;;;;;;4991293;28;20425;-65
2022/04/16 14:03:54;;;;;;;5.28;2.33;;;;;;;;;;4972574;28;20440;-64
2022/04/16 14:06:21;;;;;;;3.00;2.08;;;;;;;;;;4990656;28;20448;-64
2022/04/16 14:08:47;;;;;;;3.20;1.90;;;;;;;;;;4990165;28;20108;-64
2022/04/16 14:11:14;;;;;;;2.97;1.85;;;;;;;;;;4990514;28;20438;-65
2022/04/16 14:13:39;;;;;;;4.50;2.03;;;;;;;;;;4991156;28;20410;-64
2022/04/16 14:16:06;;;;;;;3.63;1.92;;;;;;;;;;4990069;28;20103;-64
2022/04/16 14:18:32;;;;;;;2.03;1.42;;;;;;;;;;4991511;28;20032;-64
2022/04/16 14:20:58;;;;;;;3.83;2.13;;;;;;;;;;4990045;28;20459;-64
2022/04/16 14:23:23;;;;;;;3.38;1.90;;;;;;;;;;4988783;28;20452;-64
2022/04/16 14:25:49;;;;;;;4.22;1.92;;;;;;;;;;4990201;28;20413;-64
2022/04/16 14:28:15;;;;;;;3.22;2.05;;;;;;;;;;4990331;28;20087;-64
2022/04/16 14:30:40;;;;;;;2.38;1.70;;;;;;;;;;4990172;28;20464;-64
2022/04/16 14:33:06;;;;;;;3.67;1.95;;;;;;;;;;4990641;28;20446;-64
2022/04/16 14:35:32;;;;;;;3.40;1.70;;;;;;;;;;4990454;28;20478;-65
2022/04/16 14:37:58;;;;;;;4.70;2.33;;;;;;;;;;4989984;28;20424;-64
2022/04/16 14:40:23;;;;;;;6.20;2.15;;;;;;;;;;4989901;28;20059;-64
2022/04/16 14:42:49;;;;;;;2.63;1.60;;;;;;;;;;4989694;28;20498;-64
2022/04/16 14:45:15;;;;;;;3.08;1.80;;;;;;;;;;4989436;28;20460;-65
2022/04/16 14:47:42;;;;;;;3.35;2.03;;;;;;;;;;4989502;28;20325;-64
2022/04/16 14:50:08;;;;;;;4.00;2.13;;;;;;;;;;4989893;28;20479;-64
2022/04/16 14:52:34;;;;;;;3.92;2.28;;;;;;;;;;4989547;28;20492;-64
2022/04/16 14:54:59;;;;;;;3.28;2.03;;;;;;;;;;4989403;28;20441;-64
2022/04/16 14:57:24;;;;;;;4.07;1.98;;;;;;;;;;4989693;28;20416;-64
2022/04/16 14:59:50;;;;;;;4.72;2.22;;;;;;;;;;4989805;28;20386;-64
2022/04/16 15:02:15;;;;;;;4.63;2.50;;;;;;;;;;4989838;28;20490;-64